sensor_id;sensor_type;location;lat;lon;timestamp;P1;durP1;ratioP1;P2;durP2;ratioP2
21334;SDS011;10826;52.536;13.432;2022-10-18T00:02:06;8.80;;;7.17;;
21334;SDS011;10826;52.536;13.432;2022-10-18T00:04:32;7.83;;;6.53;;
21334;SDS011;10826;52.536;13.432;2022-10-18T00:10:40;8.60;;;6.80;;
21334;SDS011;10826;52.536;13.432;2022-10-18T00:13:05;9.63;;;7.03;;
21334;SDS011;10826;52.536;13.432;2022-10-18T00:15:31;7.63;;;6.83;;
21334;SDS011;10826;52.536;13.432;2022-10-18T00:17:57;10.63;;;6.93;;
21334;SDS011;10826;52.536;13.432;2022-10-18T00:20:23;6.77;;;6.17;;
21334;SDS011;10826;52.536;13.432;2022-10-18T00:22:49;8.03;;;6.53;;
21334;SDS011;10826;52.536;13.432;2022-10-18T00:25:16;7.10;;;6.40;;
21334;SDS011;10826;52.536;13.432;2022-10-18T00:27:42;8.43;;;7.23;;
21334;SDS011;10826;52.536;13.432;2022-10-18T00:30:08;10.90;;;7.43;;
21334;SDS011;10826;52.536;13.432;2022-10-18T00:32:38;9.77;;;6.70;;
21334;SDS011;10826;52.536;13.432;2022-10-18T00:35:05;7.80;;;7.10;;
21334;SDS011;10826;52.536;13.432;2022-10-18T00:37:33;7.67;;;6.93;;
21334;SDS011;10826;52.536;13.432;2022-10-18T00:40:00;9.33;;;8.33;;
21334;SDS011;10826;52.536;13.432;2022-10-18T00:42:28;7.90;;;7.23;;
21334;SDS011;10826;52.536;13.432;2022-10-18T00:47:48;9.07;;;8.27;;
21334;SDS011;10826;52.536;13.432;2022-10-18T00:50:27;10.27;;;8.80;;
21334;SDS011;10826;52.536;13.432;2022-10-18T00:52:59;9.60;;;8.70;;
21334;SDS011;10826;52.536;13.432;2022-10-18T00:55:31;10.33;;;9.03;;
21334;SDS011;10826;52.536;13.432;2022-10-18T00:57:58;10.00;;;8.83;;
21334;SDS011;10826;52.536;13.432;2022-10-18T01:00:25;10.77;;;9.13;;
21334;SDS011;10826;52.536;13.432;2022-10-18T01:02:51;10.30;;;9.23;;
21334;SDS011;10826;52.536;13.432;2022-10-18T01:05:18;10.53;;;9.43;;
21334;SDS011;10826;52.536;13.432;2022-10-18T01:11:27;10.03;;;9.23;;
21334;SDS011;10826;52.536;13.432;2022-10-18T01:14:05;9.70;;;8.80;;
21334;SDS011;10826;52.536;13.432;2022-10-18T01:16:58;10.07;;;8.63;;
21334;SDS011;10826;52.536;13.432;2022-10-18T01:31:22;9.60;;;8.40;;
21334;SDS011;10826;52.536;13.432;2022-10-18T01:34:00;8.73;;;7.93;;
21334;SDS011;10826;52.536;13.432;2022-10-18T01:36:34;9.70;;;8.73;;
21334;SDS011;10826;52.536;13.432;2022-10-18T01:39:11;11.60;;;10.50;;
21334;SDS011;10826;52.536;13.432;2022-10-18T01:41:47;12.37;;;9.50;;
21334;SDS011;10826;52.536;13.432;2022-10-18T01:44:18;12.63;;;11.27;;
21334;SDS011;10826;52.536;13.432;2022-10-18T01:46:50;11.60;;;8.83;;
21334;SDS011;10826;52.536;13.432;2022-10-18T01:49:20;10.17;;;9.17;;
21334;SDS011;10826;52.536;13.432;2022-10-18T01:51:46;9.87;;;9.07;;
21334;SDS011;10826;52.536;13.432;2022-10-18T01:54:12;10.53;;;9.53;;
21334;SDS011;10826;52.536;13.432;2022-10-18T02:02:37;11.87;;;10.67;;
21334;SDS011;10826;52.536;13.432;2022-10-18T02:11:06;10.03;;;9.23;;
21334;SDS011;10826;52.536;13.432;2022-10-18T02:16:28;13.90;;;10.83;;
21334;SDS011;10826;52.536;13.432;2022-10-18T02:21:42;12.20;;;9.80;;
21334;SDS011;10826;52.536;13.432;2022-10-18T02:24:12;10.43;;;9.53;;
21334;SDS011;10826;52.536;13.432;2022-10-18T02:26:40;16.57;;;9.73;;
21334;SDS011;10826;52.536;13.432;2022-10-18T02:29:06;10.10;;;9.30;;
21334;SDS011;10826;52.536;13.432;2022-10-18T02:31:54;11.43;;;10.03;;
21334;SDS011;10826;52.536;13.432;2022-10-18T02:34:40;10.83;;;9.67;;
21334;SDS011;10826;52.536;13.432;2022-10-18T02:37:26;10.50;;;9.63;;
21334;SDS011;10826;52.536;13.432;2022-10-18T02:39:59;10.57;;;9.37;;
21334;SDS011;10826;52.536;13.432;2022-10-18T02:42:38;10.17;;;9.27;;
21334;SDS011;10826;52.536;13.432;2022-10-18T02:45:12;10.90;;;9.73;;
21334;SDS011;10826;52.536;13.432;2022-10-18T02:47:39;13.33;;;10.80;;
21334;SDS011;10826;52.536;13.432;2022-10-18T02:50:05;11.00;;;9.97;;
21334;SDS011;10826;52.536;13.432;2022-10-18T02:52:31;10.30;;;9.30;;
21334;SDS011;10826;52.536;13.432;2022-10-18T02:54:57;10.03;;;9.23;;
21334;SDS011;10826;52.536;13.432;2022-10-18T02:57:23;10.90;;;9.63;;
21334;SDS011;10826;52.536;13.432;2022-10-18T02:59:49;10.70;;;9.60;;
21334;SDS011;10826;52.536;13.432;2022-10-18T03:02:15;11.80;;;10.10;;
21334;SDS011;10826;52.536;13.432;2022-10-18T03:04:40;10.43;;;9.43;;
21334;SDS011;10826;52.536;13.432;2022-10-18T03:07:06;11.57;;;10.47;;
21334;SDS011;10826;52.536;13.432;2022-10-18T03:09:32;11.27;;;10.17;;
21334;SDS011;10826;52.536;13.432;2022-10-18T03:11:58;10.87;;;9.97;;
21334;SDS011;10826;52.536;13.432;2022-10-18T03:14:24;10.13;;;9.33;;
21334;SDS011;10826;52.536;13.432;2022-10-18T03:16:50;11.83;;;9.77;;
21334;SDS011;10826;52.536;13.432;2022-10-18T03:19:16;12.03;;;9.83;;
21334;SDS011;10826;52.536;13.432;2022-10-18T03:21:42;10.63;;;9.70;;
21334;SDS011;10826;52.536;13.432;2022-10-18T03:24:08;10.37;;;9.37;;
21334;SDS011;10826;52.536;13.432;2022-10-18T03:26:34;10.87;;;8.93;;
21334;SDS011;10826;52.536;13.432;2022-10-18T03:29:00;11.33;;;10.33;;
21334;SDS011;10826;52.536;13.432;2022-10-18T03:31:26;9.90;;;8.90;;
21334;SDS011;10826;52.536;13.432;2022-10-18T03:33:52;10.23;;;9.23;;
21334;SDS011;10826;52.536;13.432;2022-10-18T03:36:18;12.00;;;9.33;;
21334;SDS011;10826;52.536;13.432;2022-10-18T03:38:45;10.07;;;9.27;;
21334;SDS011;10826;52.536;13.432;2022-10-18T03:41:11;11.07;;;9.33;;
21334;SDS011;10826;52.536;13.432;2022-10-18T03:43:36;11.10;;;8.93;;
21334;SDS011;10826;52.536;13.432;2022-10-18T03:46:02;9.83;;;9.03;;
21334;SDS011;10826;52.536;13.432;2022-10-18T03:48:29;11.40;;;8.97;;
21334;SDS011;10826;52.536;13.432;2022-10-18T03:50:55;9.47;;;8.40;;
21334;SDS011;10826;52.536;13.432;2022-10-18T03:53:21;9.30;;;8.60;;
21334;SDS011;10826;52.536;13.432;2022-10-18T03:55:53;8.90;;;8.20;;
21334;SDS011;10826;52.536;13.432;2022-10-18T03:58:20;10.13;;;9.10;;
21334;SDS011;10826;52.536;13.432;2022-10-18T04:00:48;10.50;;;9.17;;
21334;SDS011;10826;52.536;13.432;2022-10-18T04:03:15;9.90;;;9.20;;
21334;SDS011;10826;52.536;13.432;2022-10-18T04:05:41;18.37;;;10.00;;
21334;SDS011;10826;52.536;13.432;2022-10-18T04:08:08;10.70;;;9.40;;
21334;SDS011;10826;52.536;13.432;2022-10-18T04:10:35;10.90;;;9.13;;
21334;SDS011;10826;52.536;13.432;2022-10-18T04:13:03;10.27;;;9.37;;
21334;SDS011;10826;52.536;13.432;2022-10-18T04:15:30;9.60;;;8.77;;
21334;SDS011;10826;52.536;13.432;2022-10-18T04:17:56;9.53;;;8.77;;
21334;SDS011;10826;52.536;13.432;2022-10-18T04:20:23;12.83;;;9.03;;
21334;SDS011;10826;52.536;13.432;2022-10-18T04:22:50;9.70;;;8.80;;
21334;SDS011;10826;52.536;13.432;2022-10-18T04:25:16;9.10;;;8.30;;
21334;SDS011;10826;52.536;13.432;2022-10-18T04:27:42;8.53;;;7.83;;
21334;SDS011;10826;52.536;13.432;2022-10-18T04:30:09;8.23;;;7.53;;
21334;SDS011;10826;52.536;13.432;2022-10-18T04:32:35;8.93;;;8.23;;
21334;SDS011;10826;52.536;13.432;2022-10-18T04:35:02;8.50;;;7.80;;
21334;SDS011;10826;52.536;13.432;2022-10-18T04:37:29;9.57;;;8.10;;
21334;SDS011;10826;52.536;13.432;2022-10-18T04:39:56;8.03;;;7.27;;
21334;SDS011;10826;52.536;13.432;2022-10-18T04:42:22;7.53;;;6.83;;
21334;SDS011;10826;52.536;13.432;2022-10-18T04:44:48;7.63;;;6.97;;
21334;SDS011;10826;52.536;13.432;2022-10-18T04:47:15;7.60;;;7.00;;
21334;SDS011;10826;52.536;13.432;2022-10-18T04:49:42;8.97;;;8.10;;
21334;SDS011;10826;52.536;13.432;2022-10-18T04:52:08;8.37;;;7.17;;
21334;SDS011;10826;52.536;13.432;2022-10-18T04:54:34;7.80;;;7.00;;
21334;SDS011;10826;52.536;13.432;2022-10-18T04:57:01;12.10;;;10.00;;
21334;SDS011;10826;52.536;13.432;2022-10-18T04:59:27;9.47;;;8.77;;
21334;SDS011;10826;52.536;13.432;2022-10-18T05:01:53;9.57;;;8.60;;
21334;SDS011;10826;52.536;13.432;2022-10-18T05:04:19;14.47;;;8.03;;
21334;SDS011;10826;52.536;13.432;2022-10-18T05:06:45;8.67;;;7.77;;
21334;SDS011;10826;52.536;13.432;2022-10-18T05:09:10;9.20;;;8.40;;
21334;SDS011;10826;52.536;13.432;2022-10-18T05:11:37;8.90;;;8.00;;
21334;SDS011;10826;52.536;13.432;2022-10-18T05:14:03;9.13;;;7.87;;
21334;SDS011;10826;52.536;13.432;2022-10-18T05:16:29;11.27;;;8.33;;
21334;SDS011;10826;52.536;13.432;2022-10-18T05:18:56;9.43;;;8.20;;
21334;SDS011;10826;52.536;13.432;2022-10-18T05:21:22;8.77;;;7.90;;
21334;SDS011;10826;52.536;13.432;2022-10-18T05:23:48;9.10;;;8.10;;
21334;SDS011;10826;52.536;13.432;2022-10-18T05:26:14;8.60;;;7.80;;
21334;SDS011;10826;52.536;13.432;2022-10-18T05:28:40;10.70;;;8.33;;
21334;SDS011;10826;52.536;13.432;2022-10-18T05:31:06;9.20;;;7.93;;
21334;SDS011;10826;52.536;13.432;2022-10-18T05:33:34;8.93;;;8.13;;
21334;SDS011;10826;52.536;13.432;2022-10-18T05:36:00;9.83;;;8.90;;
21334;SDS011;10826;52.536;13.432;2022-10-18T05:38:26;10.27;;;9.27;;
21334;SDS011;10826;52.536;13.432;2022-10-18T05:40:55;10.10;;;9.07;;
21334;SDS011;10826;52.536;13.432;2022-10-18T05:43:22;10.97;;;9.20;;
21334;SDS011;10826;52.536;13.432;2022-10-18T05:45:48;10.60;;;9.50;;
21334;SDS011;10826;52.536;13.432;2022-10-18T05:48:15;11.47;;;9.70;;
21334;SDS011;10826;52.536;13.432;2022-10-18T05:50:42;10.67;;;8.43;;
21334;SDS011;10826;52.536;13.432;2022-10-18T05:53:08;9.90;;;9.10;;
21334;SDS011;10826;52.536;13.432;2022-10-18T05:55:34;9.83;;;8.93;;
21334;SDS011;10826;52.536;13.432;2022-10-18T05:58:01;9.63;;;8.57;;
21334;SDS011;10826;52.536;13.432;2022-10-18T06:00:28;10.77;;;9.87;;
21334;SDS011;10826;52.536;13.432;2022-10-18T06:02:55;10.07;;;9.17;;
21334;SDS011;10826;52.536;13.432;2022-10-18T06:05:21;10.83;;;9.37;;
21334;SDS011;10826;52.536;13.432;2022-10-18T06:07:47;10.13;;;9.03;;
21334;SDS011;10826;52.536;13.432;2022-10-18T06:10:13;13.50;;;9.97;;
21334;SDS011;10826;52.536;13.432;2022-10-18T06:12:39;9.30;;;8.50;;
21334;SDS011;10826;52.536;13.432;2022-10-18T06:15:05;9.67;;;8.63;;
21334;SDS011;10826;52.536;13.432;2022-10-18T06:17:31;9.30;;;8.50;;
21334;SDS011;10826;52.536;13.432;2022-10-18T06:19:57;10.63;;;9.53;;
21334;SDS011;10826;52.536;13.432;2022-10-18T06:22:23;11.17;;;9.53;;
21334;SDS011;10826;52.536;13.432;2022-10-18T06:24:49;10.47;;;9.43;;
21334;SDS011;10826;52.536;13.432;2022-10-18T06:27:15;10.10;;;8.90;;
21334;SDS011;10826;52.536;13.432;2022-10-18T06:29:41;12.37;;;9.17;;
21334;SDS011;10826;52.536;13.432;2022-10-18T06:32:08;15.57;;;11.03;;
21334;SDS011;10826;52.536;13.432;2022-10-18T06:34:34;12.10;;;9.43;;
21334;SDS011;10826;52.536;13.432;2022-10-18T06:37:00;10.17;;;9.03;;
21334;SDS011;10826;52.536;13.432;2022-10-18T06:39:27;11.87;;;8.93;;
21334;SDS011;10826;52.536;13.432;2022-10-18T06:41:54;10.50;;;9.40;;
21334;SDS011;10826;52.536;13.432;2022-10-18T06:44:20;9.03;;;8.13;;
21334;SDS011;10826;52.536;13.432;2022-10-18T06:46:46;12.37;;;10.13;;
21334;SDS011;10826;52.536;13.432;2022-10-18T06:49:13;11.03;;;9.80;;
21334;SDS011;10826;52.536;13.432;2022-10-18T06:51:43;14.37;;;9.73;;
21334;SDS011;10826;52.536;13.432;2022-10-18T06:54:10;12.67;;;9.93;;
21334;SDS011;10826;52.536;13.432;2022-10-18T06:56:36;12.67;;;9.40;;
21334;SDS011;10826;52.536;13.432;2022-10-18T06:59:03;9.53;;;8.70;;
21334;SDS011;10826;52.536;13.432;2022-10-18T07:01:29;9.73;;;8.73;;
21334;SDS011;10826;52.536;13.432;2022-10-18T07:03:56;9.60;;;8.60;;
21334;SDS011;10826;52.536;13.432;2022-10-18T07:06:22;8.83;;;8.03;;
21334;SDS011;10826;52.536;13.432;2022-10-18T07:08:50;10.40;;;8.20;;
21334;SDS011;10826;52.536;13.432;2022-10-18T07:11:20;14.33;;;8.40;;
21334;SDS011;10826;52.536;13.432;2022-10-18T07:13:49;10.27;;;8.70;;
21334;SDS011;10826;52.536;13.432;2022-10-18T07:16:18;10.43;;;8.57;;
21334;SDS011;10826;52.536;13.432;2022-10-18T07:18:48;11.40;;;8.53;;
21334;SDS011;10826;52.536;13.432;2022-10-18T07:21:16;10.30;;;9.03;;
21334;SDS011;10826;52.536;13.432;2022-10-18T07:23:46;10.17;;;9.27;;
21334;SDS011;10826;52.536;13.432;2022-10-18T07:26:14;10.63;;;9.20;;
21334;SDS011;10826;52.536;13.432;2022-10-18T07:28:42;11.17;;;9.30;;
21334;SDS011;10826;52.536;13.432;2022-10-18T07:31:12;8.80;;;8.00;;
21334;SDS011;10826;52.536;13.432;2022-10-18T07:33:38;14.57;;;8.83;;
21334;SDS011;10826;52.536;13.432;2022-10-18T07:36:08;9.20;;;8.17;;
21334;SDS011;10826;52.536;13.432;2022-10-18T07:38:36;9.40;;;8.43;;
21334;SDS011;10826;52.536;13.432;2022-10-18T07:41:04;8.60;;;7.73;;
21334;SDS011;10826;52.536;13.432;2022-10-18T07:43:32;10.37;;;7.87;;
21334;SDS011;10826;52.536;13.432;2022-10-18T07:46:00;8.43;;;7.73;;
21334;SDS011;10826;52.536;13.432;2022-10-18T07:48:28;9.53;;;7.27;;
21334;SDS011;10826;52.536;13.432;2022-10-18T07:50:58;8.20;;;6.93;;
21334;SDS011;10826;52.536;13.432;2022-10-18T07:53:27;10.57;;;7.03;;
21334;SDS011;10826;52.536;13.432;2022-10-18T07:56:02;8.23;;;6.53;;
21334;SDS011;10826;52.536;13.432;2022-10-18T07:58:32;9.23;;;7.20;;
21334;SDS011;10826;52.536;13.432;2022-10-18T08:01:02;8.23;;;7.30;;
21334;SDS011;10826;52.536;13.432;2022-10-18T08:03:30;7.93;;;7.23;;
21334;SDS011;10826;52.536;13.432;2022-10-18T08:05:56;9.97;;;7.93;;
21334;SDS011;10826;52.536;13.432;2022-10-18T08:08:25;8.70;;;7.90;;
21334;SDS011;10826;52.536;13.432;2022-10-18T08:10:51;7.93;;;7.13;;
21334;SDS011;10826;52.536;13.432;2022-10-18T08:13:33;11.67;;;8.23;;
21334;SDS011;10826;52.536;13.432;2022-10-18T08:15:59;8.97;;;8.17;;
21334;SDS011;10826;52.536;13.432;2022-10-18T08:18:31;9.20;;;7.97;;
21334;SDS011;10826;52.536;13.432;2022-10-18T08:20:59;9.17;;;7.93;;
21334;SDS011;10826;52.536;13.432;2022-10-18T08:23:26;10.80;;;7.63;;
21334;SDS011;10826;52.536;13.432;2022-10-18T08:25:53;10.53;;;7.40;;
21334;SDS011;10826;52.536;13.432;2022-10-18T08:28:19;9.20;;;8.30;;
21334;SDS011;10826;52.536;13.432;2022-10-18T08:30:45;8.20;;;7.40;;
21334;SDS011;10826;52.536;13.432;2022-10-18T08:33:11;8.97;;;7.57;;
21334;SDS011;10826;52.536;13.432;2022-10-18T08:35:38;6.07;;;5.57;;
21334;SDS011;10826;52.536;13.432;2022-10-18T08:38:04;9.57;;;7.03;;
21334;SDS011;10826;52.536;13.432;2022-10-18T08:40:30;9.40;;;5.33;;
21334;SDS011;10826;52.536;13.432;2022-10-18T08:43:13;8.80;;;5.73;;
21334;SDS011;10826;52.536;13.432;2022-10-18T08:45:52;6.37;;;5.43;;
21334;SDS011;10826;52.536;13.432;2022-10-18T08:48:20;6.10;;;5.50;;
21334;SDS011;10826;52.536;13.432;2022-10-18T08:51:03;7.53;;;6.10;;
21334;SDS011;10826;52.536;13.432;2022-10-18T08:53:48;11.27;;;6.10;;
21334;SDS011;10826;52.536;13.432;2022-10-18T08:56:26;8.10;;;6.33;;
21334;SDS011;10826;52.536;13.432;2022-10-18T08:58:52;7.13;;;6.03;;
21334;SDS011;10826;52.536;13.432;2022-10-18T09:01:22;7.37;;;5.57;;
21334;SDS011;10826;52.536;13.432;2022-10-18T09:04:34;5.47;;;4.97;;
21334;SDS011;10826;52.536;13.432;2022-10-18T09:13:19;7.73;;;5.47;;
21334;SDS011;10826;52.536;13.432;2022-10-18T09:16:02;6.37;;;4.50;;
21334;SDS011;10826;52.536;13.432;2022-10-18T09:18:50;9.67;;;6.00;;
21334;SDS011;10826;52.536;13.432;2022-10-18T09:24:50;8.50;;;6.40;;
21334;SDS011;10826;52.536;13.432;2022-10-18T09:27:53;7.20;;;5.57;;
21334;SDS011;10826;52.536;13.432;2022-10-18T09:33:31;6.50;;;5.90;;
21334;SDS011;10826;52.536;13.432;2022-10-18T09:36:07;6.73;;;6.03;;
21334;SDS011;10826;52.536;13.432;2022-10-18T09:38:42;8.27;;;6.53;;
21334;SDS011;10826;52.536;13.432;2022-10-18T09:41:23;6.90;;;6.20;;
21334;SDS011;10826;52.536;13.432;2022-10-18T09:43:56;8.77;;;6.90;;
21334;SDS011;10826;52.536;13.432;2022-10-18T09:47:18;6.47;;;5.80;;
21334;SDS011;10826;52.536;13.432;2022-10-18T09:49:59;6.67;;;6.03;;
21334;SDS011;10826;52.536;13.432;2022-10-18T09:55:39;7.33;;;5.67;;
21334;SDS011;10826;52.536;13.432;2022-10-18T10:01:12;5.97;;;5.40;;
21334;SDS011;10826;52.536;13.432;2022-10-18T10:03:43;6.10;;;5.60;;
21334;SDS011;10826;52.536;13.432;2022-10-18T10:08:43;7.00;;;5.80;;
21334;SDS011;10826;52.536;13.432;2022-10-18T10:11:34;6.43;;;5.30;;
21334;SDS011;10826;52.536;13.432;2022-10-18T10:14:11;6.77;;;5.93;;
21334;SDS011;10826;52.536;13.432;2022-10-18T10:16:53;5.87;;;5.27;;
21334;SDS011;10826;52.536;13.432;2022-10-18T10:22:05;5.43;;;5.03;;
21334;SDS011;10826;52.536;13.432;2022-10-18T10:24:48;6.07;;;5.60;;
21334;SDS011;10826;52.536;13.432;2022-10-18T10:30:22;6.67;;;5.70;;
21334;SDS011;10826;52.536;13.432;2022-10-18T10:32:54;6.47;;;5.97;;
21334;SDS011;10826;52.536;13.432;2022-10-18T10:35:23;7.90;;;6.70;;
21334;SDS011;10826;52.536;13.432;2022-10-18T10:38:03;6.77;;;6.27;;
21334;SDS011;10826;52.536;13.432;2022-10-18T10:40:32;8.60;;;7.17;;
21334;SDS011;10826;52.536;13.432;2022-10-18T10:48:55;7.30;;;6.60;;
21334;SDS011;10826;52.536;13.432;2022-10-18T10:51:27;7.20;;;6.50;;
21334;SDS011;10826;52.536;13.432;2022-10-18T10:59:29;7.37;;;6.20;;
21334;SDS011;10826;52.536;13.432;2022-10-18T11:02:33;7.17;;;6.47;;
21334;SDS011;10826;52.536;13.432;2022-10-18T11:07:52;7.27;;;6.67;;
21334;SDS011;10826;52.536;13.432;2022-10-18T11:10:23;7.57;;;6.87;;
21334;SDS011;10826;52.536;13.432;2022-10-18T11:13:14;8.27;;;7.50;;
21334;SDS011;10826;52.536;13.432;2022-10-18T11:16:41;8.70;;;7.40;;
21334;SDS011;10826;52.536;13.432;2022-10-18T11:19:39;7.40;;;6.80;;
21334;SDS011;10826;52.536;13.432;2022-10-18T11:22:12;7.70;;;7.00;;
21334;SDS011;10826;52.536;13.432;2022-10-18T11:24:44;7.43;;;6.83;;
21334;SDS011;10826;52.536;13.432;2022-10-18T11:27:23;8.03;;;7.30;;
21334;SDS011;10826;52.536;13.432;2022-10-18T11:33:05;7.70;;;7.10;;
21334;SDS011;10826;52.536;13.432;2022-10-18T11:36:08;7.63;;;7.03;;
21334;SDS011;10826;52.536;13.432;2022-10-18T11:39:18;8.00;;;7.20;;
21334;SDS011;10826;52.536;13.432;2022-10-18T11:41:59;6.80;;;6.30;;
21334;SDS011;10826;52.536;13.432;2022-10-18T11:50:23;9.50;;;6.90;;
21334;SDS011;10826;52.536;13.432;2022-10-18T11:56:08;7.67;;;6.93;;
21334;SDS011;10826;52.536;13.432;2022-10-18T12:05:26;7.70;;;7.10;;
21334;SDS011;10826;52.536;13.432;2022-10-18T12:11:22;8.20;;;7.20;;
21334;SDS011;10826;52.536;13.432;2022-10-18T12:17:05;7.77;;;6.93;;
21334;SDS011;10826;52.536;13.432;2022-10-18T12:19:56;7.97;;;7.27;;
21334;SDS011;10826;52.536;13.432;2022-10-18T12:25:05;7.47;;;6.83;;
21334;SDS011;10826;52.536;13.432;2022-10-18T12:27:43;6.23;;;5.63;;
21334;SDS011;10826;52.536;13.432;2022-10-18T12:30:19;6.63;;;6.07;;
21334;SDS011;10826;52.536;13.432;2022-10-18T12:33:07;6.23;;;5.70;;
21334;SDS011;10826;52.536;13.432;2022-10-18T12:35:56;6.20;;;5.70;;
21334;SDS011;10826;52.536;13.432;2022-10-18T12:38:37;5.90;;;5.40;;
21334;SDS011;10826;52.536;13.432;2022-10-18T12:41:15;6.43;;;5.93;;
21334;SDS011;10826;52.536;13.432;2022-10-18T12:43:52;6.67;;;6.13;;
21334;SDS011;10826;52.536;13.432;2022-10-18T12:46:43;5.97;;;5.57;;
21334;SDS011;10826;52.536;13.432;2022-10-18T12:49:21;6.50;;;6.00;;
21334;SDS011;10826;52.536;13.432;2022-10-18T12:51:56;6.77;;;6.00;;
21334;SDS011;10826;52.536;13.432;2022-10-18T12:54:29;6.73;;;6.00;;
21334;SDS011;10826;52.536;13.432;2022-10-18T12:56:58;6.57;;;5.97;;
21334;SDS011;10826;52.536;13.432;2022-10-18T13:09:23;7.50;;;6.83;;
21334;SDS011;10826;52.536;13.432;2022-10-18T13:12:00;7.33;;;6.83;;
21334;SDS011;10826;52.536;13.432;2022-10-18T13:17:50;9.07;;;6.83;;
21334;SDS011;10826;52.536;13.432;2022-10-18T13:20:45;7.77;;;7.07;;
21334;SDS011;10826;52.536;13.432;2022-10-18T13:26:59;7.70;;;7.10;;
21334;SDS011;10826;52.536;13.432;2022-10-18T13:32:57;8.07;;;7.37;;
21334;SDS011;10826;52.536;13.432;2022-10-18T13:35:59;7.80;;;7.20;;
21334;SDS011;10826;52.536;13.432;2022-10-18T13:41:29;7.97;;;7.27;;
21334;SDS011;10826;52.536;13.432;2022-10-18T13:44:32;8.27;;;7.37;;
21334;SDS011;10826;52.536;13.432;2022-10-18T14:07:29;7.37;;;6.77;;
21334;SDS011;10826;52.536;13.432;2022-10-18T14:09:58;7.90;;;7.20;;
21334;SDS011;10826;52.536;13.432;2022-10-18T14:15:14;7.13;;;6.60;;
21334;SDS011;10826;52.536;13.432;2022-10-18T14:17:50;8.37;;;7.67;;
21334;SDS011;10826;52.536;13.432;2022-10-18T14:20:37;7.90;;;7.07;;
21334;SDS011;10826;52.536;13.432;2022-10-18T14:26:15;8.83;;;7.67;;
21334;SDS011;10826;52.536;13.432;2022-10-18T14:28:44;8.00;;;7.27;;
21334;SDS011;10826;52.536;13.432;2022-10-18T14:31:28;9.73;;;8.57;;
21334;SDS011;10826;52.536;13.432;2022-10-18T14:33:55;11.27;;;8.93;;
21334;SDS011;10826;52.536;13.432;2022-10-18T14:36:22;8.67;;;7.80;;
21334;SDS011;10826;52.536;13.432;2022-10-18T14:39:04;10.60;;;9.63;;
21334;SDS011;10826;52.536;13.432;2022-10-18T14:41:48;9.70;;;8.70;;
21334;SDS011;10826;52.536;13.432;2022-10-18T14:44:19;9.07;;;8.13;;
21334;SDS011;10826;52.536;13.432;2022-10-18T14:47:00;10.93;;;8.97;;
21334;SDS011;10826;52.536;13.432;2022-10-18T14:49:40;10.17;;;8.13;;
21334;SDS011;10826;52.536;13.432;2022-10-18T14:52:19;10.07;;;9.13;;
21334;SDS011;10826;52.536;13.432;2022-10-18T14:54:55;9.53;;;8.60;;
21334;SDS011;10826;52.536;13.432;2022-10-18T14:57:25;11.57;;;9.27;;
21334;SDS011;10826;52.536;13.432;2022-10-18T14:59:58;13.13;;;9.97;;
21334;SDS011;10826;52.536;13.432;2022-10-18T15:02:32;9.77;;;8.77;;
21334;SDS011;10826;52.536;13.432;2022-10-18T15:05:06;14.10;;;9.63;;
21334;SDS011;10826;52.536;13.432;2022-10-18T15:07:35;10.17;;;9.17;;
21334;SDS011;10826;52.536;13.432;2022-10-18T15:10:02;9.27;;;8.47;;
21334;SDS011;10826;52.536;13.432;2022-10-18T15:12:29;13.87;;;10.93;;
21334;SDS011;10826;52.536;13.432;2022-10-18T15:14:57;13.93;;;11.17;;
21334;SDS011;10826;52.536;13.432;2022-10-18T15:17:27;12.47;;;10.90;;
21334;SDS011;10826;52.536;13.432;2022-10-18T15:20:00;12.43;;;10.23;;
21334;SDS011;10826;52.536;13.432;2022-10-18T15:22:43;14.10;;;10.30;;
21334;SDS011;10826;52.536;13.432;2022-10-18T15:25:15;10.37;;;9.37;;
21334;SDS011;10826;52.536;13.432;2022-10-18T15:27:57;14.47;;;10.37;;
21334;SDS011;10826;52.536;13.432;2022-10-18T15:30:38;14.40;;;10.47;;
21334;SDS011;10826;52.536;13.432;2022-10-18T15:33:07;16.40;;;9.27;;
21334;SDS011;10826;52.536;13.432;2022-10-18T15:35:46;11.90;;;10.30;;
21334;SDS011;10826;52.536;13.432;2022-10-18T15:40:50;11.23;;;9.93;;
21334;SDS011;10826;52.536;13.432;2022-10-18T15:45:55;14.33;;;10.23;;
21334;SDS011;10826;52.536;13.432;2022-10-18T15:48:30;11.60;;;10.40;;
21334;SDS011;10826;52.536;13.432;2022-10-18T15:51:04;10.50;;;9.40;;
21334;SDS011;10826;52.536;13.432;2022-10-18T15:54:02;11.53;;;10.13;;
21334;SDS011;10826;52.536;13.432;2022-10-18T15:56:29;15.53;;;11.07;;
21334;SDS011;10826;52.536;13.432;2022-10-18T15:59:00;13.57;;;9.70;;
21334;SDS011;10826;52.536;13.432;2022-10-18T16:01:33;17.40;;;10.23;;
21334;SDS011;10826;52.536;13.432;2022-10-18T16:04:19;14.73;;;10.00;;
21334;SDS011;10826;52.536;13.432;2022-10-18T16:06:54;15.40;;;10.60;;
21334;SDS011;10826;52.536;13.432;2022-10-18T16:09:23;13.83;;;10.20;;
21334;SDS011;10826;52.536;13.432;2022-10-18T16:11:52;11.33;;;10.23;;
21334;SDS011;10826;52.536;13.432;2022-10-18T16:14:19;13.17;;;10.90;;
21334;SDS011;10826;52.536;13.432;2022-10-18T16:16:46;17.03;;;11.93;;
21334;SDS011;10826;52.536;13.432;2022-10-18T16:19:16;18.90;;;12.00;;
21334;SDS011;10826;52.536;13.432;2022-10-18T16:21:43;16.43;;;13.03;;
21334;SDS011;10826;52.536;13.432;2022-10-18T16:24:09;18.77;;;13.30;;
21334;SDS011;10826;52.536;13.432;2022-10-18T16:26:35;23.00;;;12.13;;
21334;SDS011;10826;52.536;13.432;2022-10-18T16:29:02;16.67;;;11.93;;
21334;SDS011;10826;52.536;13.432;2022-10-18T16:31:30;16.73;;;12.67;;
21334;SDS011;10826;52.536;13.432;2022-10-18T16:33:58;19.83;;;12.77;;
21334;SDS011;10826;52.536;13.432;2022-10-18T16:36:26;17.73;;;11.70;;
21334;SDS011;10826;52.536;13.432;2022-10-18T16:38:56;15.27;;;12.37;;
21334;SDS011;10826;52.536;13.432;2022-10-18T16:41:25;14.90;;;12.13;;
21334;SDS011;10826;52.536;13.432;2022-10-18T16:43:52;15.63;;;12.40;;
21334;SDS011;10826;52.536;13.432;2022-10-18T16:46:22;14.70;;;11.63;;
21334;SDS011;10826;52.536;13.432;2022-10-18T16:48:53;13.27;;;11.87;;
21334;SDS011;10826;52.536;13.432;2022-10-18T16:51:20;21.83;;;12.50;;
21334;SDS011;10826;52.536;13.432;2022-10-18T16:53:46;18.43;;;12.63;;
21334;SDS011;10826;52.536;13.432;2022-10-18T16:56:14;13.87;;;12.53;;
21334;SDS011;10826;52.536;13.432;2022-10-18T16:58:49;19.97;;;12.07;;
21334;SDS011;10826;52.536;13.432;2022-10-18T17:01:17;18.63;;;12.20;;
21334;SDS011;10826;52.536;13.432;2022-10-18T17:03:45;18.10;;;11.93;;
21334;SDS011;10826;52.536;13.432;2022-10-18T17:06:19;19.70;;;12.83;;
21334;SDS011;10826;52.536;13.432;2022-10-18T17:08:50;13.60;;;10.50;;
21334;SDS011;10826;52.536;13.432;2022-10-18T17:11:18;17.57;;;12.00;;
21334;SDS011;10826;52.536;13.432;2022-10-18T17:13:46;19.57;;;13.03;;
21334;SDS011;10826;52.536;13.432;2022-10-18T17:16:33;18.97;;;13.40;;
21334;SDS011;10826;52.536;13.432;2022-10-18T17:19:01;18.77;;;13.70;;
21334;SDS011;10826;52.536;13.432;2022-10-18T17:21:32;17.33;;;13.13;;
21334;SDS011;10826;52.536;13.432;2022-10-18T17:23:58;17.07;;;13.10;;
21334;SDS011;10826;52.536;13.432;2022-10-18T17:26:28;17.77;;;12.53;;
21334;SDS011;10826;52.536;13.432;2022-10-18T17:28:56;18.97;;;12.53;;
21334;SDS011;10826;52.536;13.432;2022-10-18T17:31:25;16.97;;;13.07;;
21334;SDS011;10826;52.536;13.432;2022-10-18T17:33:51;15.53;;;11.33;;
21334;SDS011;10826;52.536;13.432;2022-10-18T17:36:19;14.60;;;11.57;;